createdAt,value
2022-12-04T00:00:46.010Z,-6.00
2022-12-04T00:03:18.617Z,-6.01
2022-12-04T00:05:51.136Z,-6.03
2022-12-04T00:08:23.717Z,-6.07
2022-12-04T00:10:57.578Z,-6.05
2022-12-04T00:13:30.203Z,-6.07
2022-12-04T00:16:05.012Z,-6.09
2022-12-04T00:18:37.686Z,-6.11
2022-12-04T00:21:12.443Z,-6.14
2022-12-04T00:23:45.814Z,-6.21
2022-12-04T00:26:22.317Z,-6.19
2022-12-04T00:28:56.001Z,-6.22
2022-12-04T00:31:30.430Z,-6.23
2022-12-04T00:34:07.808Z,-6.27
2022-12-04T00:36:40.929Z,-6.32
2022-12-04T00:39:13.383Z,-6.31
2022-12-04T00:41:47.292Z,-6.34
2022-12-04T00:44:19.950Z,-6.40
2022-12-04T00:46:52.592Z,-6.39
2022-12-04T00:49:25.034Z,-6.55
2022-12-04T00:51:57.474Z,-6.42
2022-12-04T00:54:34.368Z,-6.47
2022-12-04T00:57:08.341Z,-6.51
2022-12-04T00:59:40.764Z,-6.56
2022-12-04T01:02:13.221Z,-6.56
2022-12-04T01:04:45.928Z,-6.60
2022-12-04T01:07:18.591Z,-6.61
2022-12-04T01:09:51.287Z,-6.69
2022-12-04T01:12:25.181Z,-6.69
2022-12-04T01:14:57.660Z,-6.71
2022-12-04T01:17:30.294Z,-6.74
2022-12-04T01:20:02.769Z,-6.75
2022-12-04T01:22:35.825Z,-6.78
2022-12-04T01:25:09.598Z,-6.79
2022-12-04T01:27:43.527Z,-6.82
2022-12-04T01:30:16.202Z,-6.82
2022-12-04T01:32:48.845Z,-6.90
2022-12-04T01:35:21.377Z,-6.86
2022-12-04T01:37:53.900Z,-6.89
2022-12-04T01:40:26.395Z,-6.93
2022-12-04T01:43:01.321Z,-6.97
2022-12-04T01:45:41.511Z,-6.95
2022-12-04T01:48:20.134Z,-6.97
2022-12-04T01:50:55.692Z,-6.97
2022-12-04T01:53:30.507Z,-6.98
2022-12-04T01:56:04.069Z,-6.99
2022-12-04T01:58:42.547Z,-7.00
2022-12-04T02:01:15.192Z,-7.03
2022-12-04T02:03:47.731Z,-7.04
2022-12-04T02:06:20.335Z,-7.06
2022-12-04T02:08:53.221Z,-7.08
2022-12-04T02:11:34.940Z,-7.15
2022-12-04T02:14:20.146Z,-7.11
2022-12-04T02:17:01.873Z,-7.15
2022-12-04T02:19:56.316Z,-7.16
2022-12-04T02:22:47.626Z,-7.16
2022-12-04T02:25:27.725Z,-7.18
2022-12-04T02:28:08.374Z,-7.23
2022-12-04T02:30:44.395Z,-7.20
2022-12-04T02:33:22.282Z,-7.26
2022-12-04T02:36:02.202Z,-7.24
2022-12-04T02:38:39.226Z,-7.27
2022-12-04T02:41:17.236Z,-7.29
2022-12-04T02:43:54.489Z,-7.30
2022-12-04T02:46:32.546Z,-7.37
2022-12-04T02:49:10.519Z,-7.35
2022-12-04T02:51:45.364Z,-7.39
2022-12-04T02:54:22.895Z,-7.44
2022-12-04T02:56:56.700Z,-7.45
2022-12-04T02:59:34.197Z,-7.48
2022-12-04T03:02:11.283Z,-7.49
2022-12-04T03:04:47.388Z,-7.52
2022-12-04T03:07:25.561Z,-7.52
2022-12-04T03:10:01.127Z,-7.51
2022-12-04T03:12:40.439Z,-7.51
2022-12-04T03:15:18.054Z,-7.54
2022-12-04T03:17:56.194Z,-7.54
2022-12-04T03:20:32.115Z,-7.58
2022-12-04T03:23:14.915Z,-7.62
2022-12-04T03:25:56.410Z,-7.66
2022-12-04T03:28:33.775Z,-7.68
2022-12-04T03:31:10.777Z,-7.71
2022-12-04T03:33:46.895Z,-7.68
2022-12-04T03:36:24.002Z,-7.77
2022-12-04T03:39:03.364Z,-7.73
2022-12-04T03:41:50.086Z,-7.78
2022-12-04T03:44:26.800Z,-7.72
2022-12-04T03:47:06.739Z,-7.73
2022-12-04T03:49:47.099Z,-7.72
2022-12-04T03:52:25.052Z,-7.75
2022-12-04T03:55:01.690Z,-7.80
2022-12-04T03:57:42.719Z,-7.77
2022-12-04T04:00:18.790Z,-7.85
2022-12-04T04:02:57.633Z,-7.85
2022-12-04T04:05:31.883Z,-7.90
2022-12-04T04:08:34.622Z,-7.87
2022-12-04T04:11:13.809Z,-7.89
2022-12-04T04:14:11.005Z,-7.85
2022-12-04T04:17:06.780Z,-7.87
2022-12-04T04:20:03.904Z,-7.85
2022-12-04T04:22:56.749Z,-7.93
2022-12-04T04:25:30.146Z,-7.87
2022-12-04T04:28:02.708Z,-7.87
2022-12-04T04:30:36.275Z,-7.90
2022-12-04T04:33:16.366Z,-7.94
2022-12-04T04:35:57.959Z,-7.99
2022-12-04T04:38:37.987Z,-7.98
2022-12-04T04:41:15.681Z,-8.05
2022-12-04T04:43:57.389Z,-8.01
2022-12-04T04:46:33.725Z,-8.00
2022-12-04T04:49:10.515Z,-8.00
2022-12-04T04:51:45.608Z,-7.98
2022-12-04T04:54:19.579Z,-7.98
2022-12-04T04:56:52.283Z,-8.00
2022-12-04T04:59:24.769Z,-8.01
2022-12-04T05:01:57.628Z,-8.01
2022-12-04T05:04:30.276Z,-8.07
2022-12-04T05:07:04.197Z,-8.01
2022-12-04T05:09:41.108Z,-8.01
2022-12-04T05:12:13.946Z,-8.00
2022-12-04T05:14:47.590Z,-8.03
2022-12-04T05:17:20.312Z,-8.01
2022-12-04T05:19:59.290Z,-8.02
2022-12-04T05:22:35.412Z,-8.09
2022-12-04T05:25:08.629Z,-7.99
2022-12-04T05:27:41.183Z,-7.97
2022-12-04T05:30:14.060Z,-7.95
2022-12-04T05:32:46.736Z,-8.10
2022-12-04T05:35:19.266Z,-8.00
2022-12-04T05:37:53.602Z,-8.01
2022-12-04T05:40:26.128Z,-8.00
2022-12-04T05:42:58.632Z,-8.01
2022-12-04T05:45:31.089Z,-7.98
2022-12-04T05:48:03.715Z,-7.98
2022-12-04T05:50:36.330Z,-7.98
2022-12-04T05:53:10.473Z,-7.99
2022-12-04T05:55:42.929Z,-8.04
2022-12-04T05:58:15.560Z,-7.99
2022-12-04T06:00:48.082Z,-7.96
2022-12-04T06:03:20.924Z,-7.99
2022-12-04T06:05:53.358Z,-7.91
2022-12-04T06:08:27.370Z,-7.89
2022-12-04T06:10:59.868Z,-7.85
2022-12-04T06:13:32.361Z,-7.86
2022-12-04T06:16:05.292Z,-7.83
2022-12-04T06:18:38.702Z,-7.83
2022-12-04T06:21:11.453Z,-7.88
2022-12-04T06:23:45.589Z,-7.82
2022-12-04T06:26:18.780Z,-7.82
2022-12-04T06:28:53.144Z,-7.80
2022-12-04T06:31:26.973Z,-7.82
2022-12-04T06:33:59.794Z,-7.80
2022-12-04T06:36:32.608Z,-7.85
2022-12-04T06:39:06.696Z,-7.79
2022-12-04T06:41:39.221Z,-7.79
2022-12-04T06:44:11.679Z,-7.90
2022-12-04T06:46:47.232Z,-7.77
2022-12-04T06:49:23.108Z,-7.74
2022-12-04T06:51:55.664Z,-7.74
2022-12-04T06:54:29.554Z,-7.71
2022-12-04T06:57:01.987Z,-7.65
2022-12-04T06:59:34.970Z,-7.62
2022-12-04T07:02:09.154Z,-7.59
2022-12-04T07:04:41.766Z,-7.62
2022-12-04T07:07:14.210Z,-7.56
2022-12-04T07:09:48.192Z,-7.52
2022-12-04T07:12:20.748Z,-7.49
2022-12-04T07:14:53.109Z,-7.47
2022-12-04T07:17:25.542Z,-7.43
2022-12-04T07:19:58.435Z,-7.40
2022-12-04T07:22:31.056Z,-7.39
2022-12-04T07:25:05.715Z,-7.30
2022-12-04T07:27:38.153Z,-7.27
2022-12-04T07:30:15.648Z,-7.27
2022-12-04T07:32:48.410Z,-7.28
2022-12-04T07:35:20.885Z,-7.25
2022-12-04T07:37:53.393Z,-7.23
2022-12-04T07:40:27.402Z,-7.18
2022-12-04T07:42:59.925Z,-7.13
2022-12-04T07:45:32.451Z,-7.09
2022-12-04T07:48:05.488Z,-7.07
2022-12-04T07:50:38.069Z,-7.00
2022-12-04T07:53:10.639Z,-6.99
2022-12-04T07:55:44.599Z,-6.97
2022-12-04T07:58:16.992Z,-6.93
2022-12-04T08:00:49.522Z,-6.87
2022-12-04T08:03:22.103Z,-6.82
2022-12-04T08:05:54.578Z,-6.78
2022-12-04T08:08:27.154Z,-6.76
2022-12-04T08:11:01.938Z,-6.70
2022-12-04T08:13:35.048Z,-6.66
2022-12-04T08:16:10.167Z,-6.62
2022-12-04T08:18:46.850Z,-6.62
2022-12-04T08:21:21.389Z,-6.58
2022-12-04T08:23:55.815Z,-6.61
2022-12-04T08:26:31.008Z,-6.57
2022-12-04T08:29:04.683Z,-6.53
2022-12-04T08:31:37.592Z,-6.51
2022-12-04T08:34:10.192Z,-6.49
2022-12-04T08:36:42.787Z,-6.50
2022-12-04T08:39:15.258Z,-6.51
2022-12-04T08:41:55.305Z,-6.48
2022-12-04T08:44:29.453Z,-6.46
2022-12-04T08:47:01.836Z,-6.44
2022-12-04T08:49:34.342Z,-6.40
2022-12-04T08:52:06.976Z,-6.38
2022-12-04T08:54:39.589Z,-6.36
2022-12-04T08:57:13.476Z,-6.36
2022-12-04T08:59:45.852Z,-6.36
2022-12-04T09:02:18.390Z,-6.33
2022-12-04T09:04:50.982Z,-6.30
2022-12-04T09:07:23.563Z,-6.28
2022-12-04T09:09:56.208Z,-6.25
2022-12-04T09:12:30.552Z,-6.22
2022-12-04T09:15:03.077Z,-6.21
2022-12-04T09:17:36.941Z,-6.19
2022-12-04T09:20:10.192Z,-6.15
2022-12-04T09:23:02.897Z,-6.10
2022-12-04T09:25:36.524Z,-6.16
2022-12-04T09:28:10.424Z,-6.06
2022-12-04T09:30:42.891Z,-6.02
2022-12-04T09:33:15.477Z,-5.99
2022-12-04T09:35:47.991Z,-5.99
2022-12-04T09:38:20.926Z,-6.01
2022-12-04T09:41:02.355Z,-5.93
2022-12-04T09:43:44.192Z,-5.91
2022-12-04T09:46:22.684Z,-5.84
2022-12-04T09:48:58.834Z,-5.81
2022-12-04T09:51:33.933Z,-5.77
2022-12-04T09:54:11.221Z,-5.74
2022-12-04T09:56:48.616Z,-5.72
2022-12-04T09:59:26.329Z,-5.68
2022-12-04T10:02:02.789Z,-5.66
2022-12-04T10:04:35.488Z,-5.68
2022-12-04T10:07:15.612Z,-5.58
2022-12-04T10:09:54.790Z,-5.56
2022-12-04T10:12:36.424Z,-5.54
2022-12-04T10:15:20.613Z,-5.53
2022-12-04T10:18:16.899Z,-5.50
2022-12-04T10:21:02.434Z,-5.49
2022-12-04T10:23:45.385Z,-5.48
2022-12-04T10:26:22.614Z,-5.49
2022-12-04T10:28:59.890Z,-5.44
2022-12-04T10:31:37.107Z,-5.44
2022-12-04T10:34:17.083Z,-5.44
2022-12-04T10:36:53.358Z,-5.48
2022-12-04T10:39:28.585Z,-5.46
2022-12-04T10:42:06.768Z,-5.46
2022-12-04T10:44:39.491Z,-5.46
2022-12-04T10:47:14.682Z,-5.44
2022-12-04T10:49:47.673Z,-5.48
2022-12-04T10:52:20.244Z,-5.43
2022-12-04T10:54:56.648Z,-5.42
2022-12-04T10:57:37.991Z,-5.46
2022-12-04T11:00:32.655Z,-5.41
2022-12-04T11:03:24.364Z,-5.46
2022-12-04T11:06:00.172Z,-5.41
2022-12-04T11:08:37.237Z,-5.41
2022-12-04T11:11:13.194Z,-5.42
2022-12-04T11:13:46.161Z,-5.42
2022-12-04T11:16:34.112Z,-5.40
2022-12-04T11:19:22.628Z,-5.39
2022-12-04T11:21:58.672Z,-5.39
2022-12-04T11:24:33.658Z,-5.39
2022-12-04T11:27:08.249Z,-5.38
2022-12-04T11:29:45.165Z,-5.42
2022-12-04T11:32:23.272Z,-5.38
2022-12-04T11:35:01.850Z,-5.38
2022-12-04T11:37:38.218Z,-5.36
2022-12-04T11:40:18.674Z,-5.35
2022-12-04T11:43:03.994Z,-5.37
2022-12-04T11:45:36.652Z,-5.33
2022-12-04T11:48:15.312Z,-5.39
2022-12-04T11:50:54.611Z,-5.33
2022-12-04T11:53:42.432Z,-5.35
2022-12-04T11:56:22.844Z,-5.32
2022-12-04T11:59:16.995Z,-5.33
2022-12-04T12:01:59.229Z,-5.32
2022-12-04T12:05:03.523Z,-5.37
2022-12-04T12:07:45.693Z,-5.39
2022-12-04T12:10:27.064Z,-5.45
2022-12-04T12:13:09.291Z,-5.52
2022-12-04T12:15:50.075Z,-5.39
2022-12-04T12:18:42.337Z,-5.39
2022-12-04T12:21:22.676Z,-5.39
2022-12-04T12:24:11.299Z,-5.38
2022-12-04T12:26:55.264Z,-5.39
2022-12-04T12:29:43.164Z,-5.46
2022-12-04T12:32:28.165Z,-5.46
2022-12-04T12:35:01.935Z,-5.46
2022-12-04T12:37:44.242Z,-5.48
2022-12-04T12:40:29.303Z,-5.45
2022-12-04T12:43:07.241Z,-5.48
2022-12-04T12:45:46.340Z,-5.50
2022-12-04T12:48:28.744Z,-5.51
2022-12-04T12:51:31.352Z,-5.50
2022-12-04T12:54:11.439Z,-5.53
2022-12-04T12:56:50.228Z,-5.55
2022-12-04T12:59:27.492Z,-5.64
2022-12-04T13:02:06.560Z,-5.64
2022-12-04T13:04:42.646Z,-5.60
2022-12-04T13:07:24.415Z,-5.63
2022-12-04T13:10:04.479Z,-5.64
2022-12-04T13:12:47.386Z,-5.66
2022-12-04T13:15:24.690Z,-5.77
2022-12-04T13:17:58.595Z,-5.72
2022-12-04T13:20:38.769Z,-5.80
2022-12-04T13:23:24.315Z,-5.75
2022-12-04T13:26:07.719Z,-5.76
2022-12-04T13:28:50.306Z,-5.80
2022-12-04T13:31:34.292Z,-5.85
2022-12-04T13:34:39.252Z,-5.79
2022-12-04T13:37:49.650Z,-5.88
2022-12-04T13:40:39.970Z,-5.83
2022-12-04T13:43:47.718Z,-5.88
2022-12-04T13:46:37.141Z,-5.95
2022-12-04T13:49:25.269Z,-5.97
2022-12-04T13:51:59.462Z,-6.04
2022-12-04T13:54:34.984Z,-6.05
2022-12-04T13:57:21.205Z,-6.08
2022-12-04T14:00:08.347Z,-6.11
2022-12-04T14:02:52.101Z,-6.19
2022-12-04T14:05:34.548Z,-6.15
2022-12-04T14:08:22.291Z,-6.20
2022-12-04T14:11:02.439Z,-6.19
2022-12-04T14:13:44.532Z,-6.18
2022-12-04T14:16:23.362Z,-6.21
2022-12-04T14:18:58.187Z,-6.21
2022-12-04T14:21:39.646Z,-6.23
2022-12-04T14:24:17.676Z,-6.24
2022-12-04T14:29:49.779Z,-6.29
2022-12-04T14:32:27.962Z,-6.37
2022-12-04T14:35:02.112Z,-6.34
2022-12-04T14:37:37.960Z,-6.44
2022-12-04T14:40:20.742Z,-6.43
2022-12-04T14:42:54.664Z,-6.44
2022-12-04T14:45:36.895Z,-6.45
2022-12-04T14:48:23.507Z,-6.48
2022-12-04T14:51:05.149Z,-6.53
2022-12-04T14:53:45.438Z,-6.61
2022-12-04T14:56:41.484Z,-6.56
2022-12-04T14:59:17.488Z,-6.59
2022-12-04T15:01:52.716Z,-6.62
2022-12-04T15:04:29.758Z,-6.68
2022-12-04T15:07:02.932Z,-6.71
2022-12-04T15:09:54.804Z,-6.76
2022-12-04T15:12:33.732Z,-6.77
2022-12-04T15:15:14.483Z,-6.80
2022-12-04T15:17:57.513Z,-6.88
2022-12-04T15:20:39.057Z,-6.89
2022-12-04T15:23:14.748Z,-6.93
2022-12-04T15:25:49.804Z,-6.98
2022-12-04T15:28:26.903Z,-7.00
2022-12-04T15:31:02.701Z,-7.02
2022-12-04T15:33:37.674Z,-7.03
2022-12-04T15:36:16.894Z,-7.05
2022-12-04T15:38:51.640Z,-7.08
2022-12-04T15:41:31.453Z,-7.11
2022-12-04T15:44:22.370Z,-7.14
2022-12-04T15:46:55.907Z,-7.21
2022-12-04T15:49:30.274Z,-7.20
2022-12-04T15:52:14.733Z,-7.21
2022-12-04T15:54:54.731Z,-7.21
2022-12-04T15:57:30.184Z,-7.33
2022-12-04T16:00:07.353Z,-7.28
2022-12-04T16:02:43.053Z,-7.35
2022-12-04T16:05:29.008Z,-7.33
2022-12-04T16:08:25.711Z,-7.35
2022-12-04T16:11:01.615Z,-7.38
2022-12-04T16:13:36.305Z,-7.40
2022-12-04T16:16:14.275Z,-7.43
2022-12-04T16:18:50.745Z,-7.52
2022-12-04T16:21:29.948Z,-7.49
2022-12-04T16:24:11.892Z,-7.65
2022-12-04T16:26:44.290Z,-7.57
2022-12-04T16:29:19.766Z,-7.58
2022-12-04T16:31:52.783Z,-7.59
2022-12-04T16:34:26.300Z,-7.61
2022-12-04T16:36:59.255Z,-7.62
2022-12-04T16:39:38.243Z,-7.63
2022-12-04T16:42:17.512Z,-7.64
2022-12-04T16:44:50.910Z,-7.64
2022-12-04T16:47:23.708Z,-7.68
2022-12-04T16:49:56.202Z,-7.68
2022-12-04T16:52:29.062Z,-7.69
2022-12-04T16:55:05.287Z,-7.72
2022-12-04T16:57:38.117Z,-7.72
2022-12-04T17:00:13.587Z,-7.73
2022-12-04T17:02:46.800Z,-7.89
2022-12-04T17:05:20.991Z,-7.77
2022-12-04T17:07:53.921Z,-7.85
2022-12-04T17:10:29.579Z,-7.80
2022-12-04T17:13:02.164Z,-7.83
2022-12-04T17:15:34.850Z,-7.89
2022-12-04T17:18:11.360Z,-7.86
2022-12-04T17:20:46.499Z,-7.86
2022-12-04T17:23:19.101Z,-7.85
2022-12-04T17:25:52.984Z,-7.85
2022-12-04T17:28:25.365Z,-7.87
2022-12-04T17:31:02.584Z,-7.84
2022-12-04T17:33:35.257Z,-7.85
2022-12-04T17:36:09.127Z,-7.88
2022-12-04T17:38:41.988Z,-7.89
2022-12-04T17:41:16.245Z,-7.91
2022-12-04T17:43:50.673Z,-7.92
2022-12-04T17:46:24.644Z,-7.91
2022-12-04T17:49:00.531Z,-7.91
2022-12-04T17:51:36.786Z,-7.93
2022-12-04T17:54:10.696Z,-7.94
2022-12-04T17:56:48.242Z,-7.96
2022-12-04T17:59:22.994Z,-7.96
2022-12-04T18:01:55.424Z,-7.98
2022-12-04T18:04:28.184Z,-7.98
2022-12-04T18:07:00.767Z,-8.04
2022-12-04T18:09:33.494Z,-8.07
2022-12-04T18:12:07.628Z,-8.05
2022-12-04T18:14:40.615Z,-8.01
2022-12-04T18:17:13.198Z,-7.99
2022-12-04T18:19:45.698Z,-8.06
2022-12-04T18:22:39.395Z,-8.03
2022-12-04T18:25:12.146Z,-8.04
2022-12-04T18:27:46.606Z,-8.09
2022-12-04T18:30:19.230Z,-8.27
2022-12-04T18:32:54.333Z,-8.09
2022-12-04T18:35:27.021Z,-8.09
2022-12-04T18:37:59.432Z,-8.09
2022-12-04T18:40:34.722Z,-8.17
2022-12-04T18:43:08.525Z,-8.10
2022-12-04T18:45:44.012Z,-8.18
2022-12-04T18:48:37.870Z,-8.14
2022-12-04T18:51:18.403Z,-8.15
2022-12-04T18:53:56.141Z,-8.17
2022-12-04T18:56:30.256Z,-8.22
2022-12-04T18:59:05.940Z,-8.22
2022-12-04T19:01:39.593Z,-8.32
2022-12-04T19:04:14.578Z,-8.32
2022-12-04T19:06:48.930Z,-8.34
2022-12-04T19:09:40.734Z,-8.37
2022-12-04T19:12:17.528Z,-8.46
2022-12-04T19:14:54.220Z,-8.52
2022-12-04T19:17:26.823Z,-8.46
2022-12-04T19:19:59.496Z,-8.49
2022-12-04T19:22:31.993Z,-8.54
2022-12-04T19:25:05.273Z,-8.50
2022-12-04T19:27:37.874Z,-8.60
2022-12-04T19:30:13.123Z,-8.67
2022-12-04T19:32:45.586Z,-8.60
2022-12-04T19:35:17.980Z,-8.57
2022-12-04T19:37:52.791Z,-8.58
2022-12-04T19:40:25.547Z,-8.60
2022-12-04T19:43:02.605Z,-8.57
2022-12-04T19:45:36.959Z,-8.56
2022-12-04T19:48:09.681Z,-8.55
2022-12-04T19:50:42.058Z,-8.66
2022-12-04T19:53:14.491Z,-8.62
2022-12-04T19:55:46.904Z,-8.62
2022-12-04T19:58:19.571Z,-8.65
2022-12-04T20:00:56.590Z,-8.68
2022-12-04T20:03:29.403Z,-8.69
2022-12-04T20:06:02.949Z,-8.74
2022-12-04T20:08:36.011Z,-8.71
2022-12-04T20:11:11.881Z,-8.72
2022-12-04T20:13:45.945Z,-8.75
2022-12-04T20:16:20.052Z,-8.81
2022-12-04T20:18:53.371Z,-8.80
2022-12-04T20:21:30.353Z,-8.85
2022-12-04T20:24:04.505Z,-8.88
2022-12-04T20:26:38.852Z,-8.87
2022-12-04T20:29:14.139Z,-8.88
2022-12-04T20:31:48.627Z,-8.85
2022-12-04T20:34:21.300Z,-8.83
2022-12-04T20:36:53.660Z,-8.84
2022-12-04T20:39:26.274Z,-8.83
2022-12-04T20:41:58.759Z,-8.83
2022-12-04T20:44:31.158Z,-8.82
2022-12-04T20:47:04.899Z,-8.84
2022-12-04T20:49:37.543Z,-8.85
2022-12-04T20:52:11.243Z,-8.88
2022-12-04T20:54:43.731Z,-8.95
2022-12-04T20:57:16.176Z,-8.94
2022-12-04T20:59:49.052Z,-8.96
2022-12-04T21:02:22.845Z,-9.00
2022-12-04T21:04:55.282Z,-9.09
2022-12-04T21:07:27.751Z,-9.03
2022-12-04T21:10:01.677Z,-9.12
2022-12-04T21:13:00.631Z,-9.09
2022-12-04T21:15:51.688Z,-9.16
2022-12-04T21:18:25.508Z,-9.20
2022-12-04T21:20:58.204Z,-9.19
2022-12-04T21:23:30.736Z,-9.19
2022-12-04T21:26:03.672Z,-9.23
2022-12-04T21:28:36.042Z,-9.20
2022-12-04T21:31:08.757Z,-9.23
2022-12-04T21:33:42.611Z,-9.22
2022-12-04T21:36:15.249Z,-9.23
2022-12-04T21:38:48.244Z,-9.26
2022-12-04T21:41:40.048Z,-9.28
2022-12-04T21:44:15.096Z,-9.35
2022-12-04T21:46:47.657Z,-9.33
2022-12-04T21:49:21.658Z,-9.31
2022-12-04T21:51:57.801Z,-9.38
2022-12-04T21:54:31.297Z,-9.32
2022-12-04T21:57:03.836Z,-9.31
2022-12-04T21:59:36.407Z,-9.37
2022-12-04T22:02:10.738Z,-9.32
2022-12-04T22:04:44.633Z,-9.35
2022-12-04T22:07:17.288Z,-9.33
2022-12-04T22:09:49.703Z,-9.36
2022-12-04T22:15:14.650Z,-9.34
2022-12-04T22:17:47.150Z,-9.36
2022-12-04T22:20:20.970Z,-9.51
2022-12-04T22:22:53.672Z,-9.36
2022-12-04T22:25:26.013Z,-9.36
2022-12-04T22:27:58.885Z,-9.41
2022-12-04T22:30:33.421Z,-9.38
2022-12-04T22:33:06.205Z,-9.34
2022-12-04T22:35:39.953Z,-9.36
2022-12-04T22:38:12.401Z,-9.38
2022-12-04T22:40:44.758Z,-9.34
2022-12-04T22:43:17.308Z,-9.35
2022-12-04T22:45:49.796Z,-9.34
2022-12-04T22:48:22.352Z,-9.34
2022-12-04T22:51:02.408Z,-9.37
2022-12-04T22:53:37.256Z,-9.40
2022-12-04T22:56:11.755Z,-9.43
2022-12-04T22:58:44.685Z,-9.46
2022-12-04T23:01:18.545Z,-9.44
2022-12-04T23:03:51.967Z,-9.50
2022-12-04T23:06:27.314Z,-9.50
2022-12-04T23:09:01.670Z,-9.50
2022-12-04T23:11:34.469Z,-9.49
2022-12-04T23:14:09.553Z,-9.61
2022-12-04T23:16:42.640Z,-9.51
2022-12-04T23:19:17.871Z,-9.50
2022-12-04T23:21:56.911Z,-9.53
2022-12-04T23:24:30.097Z,-9.45
2022-12-04T23:27:02.608Z,-9.45
2022-12-04T23:32:27.724Z,-9.37
2022-12-04T23:35:00.420Z,-9.35
2022-12-04T23:37:34.317Z,-9.32
2022-12-04T23:40:09.370Z,-9.31
2022-12-04T23:42:42.011Z,-9.30
2022-12-04T23:45:14.694Z,-9.30
2022-12-04T23:47:47.918Z,-9.27
2022-12-04T23:50:20.465Z,-9.27
2022-12-04T23:52:54.315Z,-9.27
2022-12-04T23:55:31.128Z,-9.28
2022-12-04T23:58:06.710Z,-9.28
